sensor_id;sensor_type;location;lat;lon;timestamp;P1;durP1;ratioP1;P2;durP2;ratioP2
7767;SDS011;3928;42.626;23.382;2022-11-11T00:00:01;43.87;;;28.03;;
7767;SDS011;3928;42.626;23.382;2022-11-11T00:02:29;39.57;;;26.63;;
7767;SDS011;3928;42.626;23.382;2022-11-11T00:04:55;36.70;;;24.23;;
7767;SDS011;3928;42.626;23.382;2022-11-11T00:07:22;31.23;;;22.67;;
7767;SDS011;3928;42.626;23.382;2022-11-11T00:09:49;35.20;;;21.03;;
7767;SDS011;3928;42.626;23.382;2022-11-11T00:12:17;30.47;;;22.47;;
7767;SDS011;3928;42.626;23.382;2022-11-11T00:14:44;31.37;;;22.57;;
7767;SDS011;3928;42.626;23.382;2022-11-11T00:17:11;34.53;;;22.67;;
7767;SDS011;3928;42.626;23.382;2022-11-11T00:19:55;31.77;;;22.77;;
7767;SDS011;3928;42.626;23.382;2022-11-11T00:22:39;31.30;;;22.27;;
7767;SDS011;3928;42.626;23.382;2022-11-11T00:25:24;32.23;;;21.37;;
7767;SDS011;3928;42.626;23.382;2022-11-11T00:27:52;28.10;;;20.53;;
7767;SDS011;3928;42.626;23.382;2022-11-11T00:30:19;33.77;;;23.90;;
7767;SDS011;3928;42.626;23.382;2022-11-11T00:32:46;35.10;;;22.93;;
7767;SDS011;3928;42.626;23.382;2022-11-11T00:35:13;38.30;;;24.87;;
7767;SDS011;3928;42.626;23.382;2022-11-11T00:38:03;40.13;;;26.07;;
7767;SDS011;3928;42.626;23.382;2022-11-11T00:40:32;40.03;;;27.40;;
7767;SDS011;3928;42.626;23.382;2022-11-11T00:43:00;39.37;;;27.83;;
7767;SDS011;3928;42.626;23.382;2022-11-11T00:45:27;46.60;;;29.13;;
7767;SDS011;3928;42.626;23.382;2022-11-11T00:47:54;42.10;;;30.00;;
7767;SDS011;3928;42.626;23.382;2022-11-11T00:50:39;43.53;;;29.73;;
7767;SDS011;3928;42.626;23.382;2022-11-11T00:53:25;46.83;;;30.17;;
7767;SDS011;3928;42.626;23.382;2022-11-11T00:55:55;57.77;;;32.57;;
7767;SDS011;3928;42.626;23.382;2022-11-11T00:58:23;49.50;;;30.10;;
7767;SDS011;3928;42.626;23.382;2022-11-11T01:00:52;49.87;;;31.37;;
7767;SDS011;3928;42.626;23.382;2022-11-11T01:03:19;47.27;;;30.13;;
7767;SDS011;3928;42.626;23.382;2022-11-11T01:05:46;48.27;;;29.90;;
7767;SDS011;3928;42.626;23.382;2022-11-11T01:08:13;39.63;;;27.87;;
7767;SDS011;3928;42.626;23.382;2022-11-11T01:10:40;43.03;;;29.47;;
7767;SDS011;3928;42.626;23.382;2022-11-11T01:13:12;41.93;;;28.37;;
7767;SDS011;3928;42.626;23.382;2022-11-11T01:15:43;37.97;;;27.63;;
7767;SDS011;3928;42.626;23.382;2022-11-11T01:18:14;41.57;;;27.23;;
7767;SDS011;3928;42.626;23.382;2022-11-11T01:20:43;41.57;;;27.33;;
7767;SDS011;3928;42.626;23.382;2022-11-11T01:23:10;42.90;;;28.90;;
7767;SDS011;3928;42.626;23.382;2022-11-11T01:25:39;40.67;;;27.93;;
7767;SDS011;3928;42.626;23.382;2022-11-11T01:28:10;44.53;;;28.93;;
7767;SDS011;3928;42.626;23.382;2022-11-11T01:30:37;43.97;;;28.97;;
7767;SDS011;3928;42.626;23.382;2022-11-11T01:33:05;43.23;;;28.60;;
7767;SDS011;3928;42.626;23.382;2022-11-11T01:35:36;39.93;;;27.13;;
7767;SDS011;3928;42.626;23.382;2022-11-11T01:38:05;39.13;;;27.30;;
7767;SDS011;3928;42.626;23.382;2022-11-11T01:40:38;41.90;;;28.73;;
7767;SDS011;3928;42.626;23.382;2022-11-11T01:45:55;37.30;;;27.07;;
7767;SDS011;3928;42.626;23.382;2022-11-11T01:48:30;40.87;;;28.00;;
7767;SDS011;3928;42.626;23.382;2022-11-11T01:51:23;40.47;;;27.20;;
7767;SDS011;3928;42.626;23.382;2022-11-11T01:53:59;43.37;;;28.57;;
7767;SDS011;3928;42.626;23.382;2022-11-11T01:56:29;44.13;;;28.80;;
7767;SDS011;3928;42.626;23.382;2022-11-11T01:58:57;38.67;;;27.20;;
7767;SDS011;3928;42.626;23.382;2022-11-11T02:01:27;42.90;;;28.80;;
7767;SDS011;3928;42.626;23.382;2022-11-11T02:03:55;41.07;;;28.90;;
7767;SDS011;3928;42.626;23.382;2022-11-11T02:06:43;41.10;;;28.53;;
7767;SDS011;3928;42.626;23.382;2022-11-11T02:09:10;39.53;;;27.97;;
7767;SDS011;3928;42.626;23.382;2022-11-11T02:11:38;39.00;;;28.20;;
7767;SDS011;3928;42.626;23.382;2022-11-11T02:14:24;43.97;;;29.77;;
7767;SDS011;3928;42.626;23.382;2022-11-11T02:17:04;45.60;;;30.10;;
7767;SDS011;3928;42.626;23.382;2022-11-11T02:19:37;46.30;;;30.90;;
7767;SDS011;3928;42.626;23.382;2022-11-11T02:22:16;46.67;;;31.90;;
7767;SDS011;3928;42.626;23.382;2022-11-11T02:24:48;47.07;;;32.07;;
7767;SDS011;3928;42.626;23.382;2022-11-11T02:27:17;54.27;;;32.87;;
7767;SDS011;3928;42.626;23.382;2022-11-11T02:29:46;49.90;;;31.93;;
7767;SDS011;3928;42.626;23.382;2022-11-11T02:32:15;47.33;;;31.70;;
7767;SDS011;3928;42.626;23.382;2022-11-11T02:34:42;49.67;;;32.50;;
7767;SDS011;3928;42.626;23.382;2022-11-11T02:37:09;45.97;;;31.00;;
7767;SDS011;3928;42.626;23.382;2022-11-11T02:39:37;44.43;;;30.93;;
7767;SDS011;3928;42.626;23.382;2022-11-11T02:42:10;45.83;;;32.20;;
7767;SDS011;3928;42.626;23.382;2022-11-11T02:44:41;47.20;;;30.87;;
7767;SDS011;3928;42.626;23.382;2022-11-11T02:47:08;47.17;;;31.67;;
7767;SDS011;3928;42.626;23.382;2022-11-11T02:49:35;48.10;;;31.70;;
7767;SDS011;3928;42.626;23.382;2022-11-11T02:52:02;45.37;;;31.83;;
7767;SDS011;3928;42.626;23.382;2022-11-11T02:54:29;44.40;;;30.90;;
7767;SDS011;3928;42.626;23.382;2022-11-11T02:56:56;44.33;;;30.87;;
7767;SDS011;3928;42.626;23.382;2022-11-11T02:59:37;43.43;;;30.07;;
7767;SDS011;3928;42.626;23.382;2022-11-11T03:02:05;50.30;;;31.47;;
7767;SDS011;3928;42.626;23.382;2022-11-11T03:04:33;43.80;;;30.70;;
7767;SDS011;3928;42.626;23.382;2022-11-11T03:07:01;41.47;;;30.43;;
7767;SDS011;3928;42.626;23.382;2022-11-11T03:09:28;42.47;;;29.40;;
7767;SDS011;3928;42.626;23.382;2022-11-11T03:11:56;40.73;;;27.90;;
7767;SDS011;3928;42.626;23.382;2022-11-11T03:14:22;38.43;;;26.60;;
7767;SDS011;3928;42.626;23.382;2022-11-11T03:16:51;37.00;;;25.10;;
7767;SDS011;3928;42.626;23.382;2022-11-11T03:19:35;32.63;;;24.40;;
7767;SDS011;3928;42.626;23.382;2022-11-11T03:22:03;29.60;;;23.63;;
7767;SDS011;3928;42.626;23.382;2022-11-11T03:24:29;35.50;;;24.47;;
7767;SDS011;3928;42.626;23.382;2022-11-11T03:27:10;35.77;;;23.47;;
7767;SDS011;3928;42.626;23.382;2022-11-11T03:29:37;33.70;;;22.17;;
7767;SDS011;3928;42.626;23.382;2022-11-11T03:32:06;33.13;;;22.97;;
7767;SDS011;3928;42.626;23.382;2022-11-11T03:34:33;33.30;;;23.10;;
7767;SDS011;3928;42.626;23.382;2022-11-11T03:37:00;36.00;;;22.50;;
7767;SDS011;3928;42.626;23.382;2022-11-11T03:39:41;33.23;;;22.73;;
7767;SDS011;3928;42.626;23.382;2022-11-11T03:42:07;30.40;;;21.83;;
7767;SDS011;3928;42.626;23.382;2022-11-11T03:44:34;30.00;;;21.77;;
7767;SDS011;3928;42.626;23.382;2022-11-11T03:47:01;30.87;;;22.47;;
7767;SDS011;3928;42.626;23.382;2022-11-11T03:49:29;31.80;;;22.13;;
7767;SDS011;3928;42.626;23.382;2022-11-11T03:51:56;32.77;;;22.77;;
7767;SDS011;3928;42.626;23.382;2022-11-11T03:54:24;32.67;;;22.97;;
7767;SDS011;3928;42.626;23.382;2022-11-11T03:56:51;31.60;;;23.50;;
7767;SDS011;3928;42.626;23.382;2022-11-11T03:59:38;37.43;;;24.20;;
7767;SDS011;3928;42.626;23.382;2022-11-11T04:02:05;35.97;;;24.90;;
7767;SDS011;3928;42.626;23.382;2022-11-11T04:04:50;38.73;;;25.93;;
7767;SDS011;3928;42.626;23.382;2022-11-11T04:07:35;42.03;;;29.43;;
7767;SDS011;3928;42.626;23.382;2022-11-11T04:10:19;44.50;;;30.93;;
7767;SDS011;3928;42.626;23.382;2022-11-11T04:12:48;46.13;;;32.67;;
7767;SDS011;3928;42.626;23.382;2022-11-11T04:15:33;44.60;;;31.37;;
7767;SDS011;3928;42.626;23.382;2022-11-11T04:18:17;44.97;;;31.20;;
7767;SDS011;3928;42.626;23.382;2022-11-11T04:21:06;45.80;;;30.90;;
7767;SDS011;3928;42.626;23.382;2022-11-11T04:23:51;46.53;;;32.70;;
7767;SDS011;3928;42.626;23.382;2022-11-11T04:26:18;43.87;;;30.57;;
7767;SDS011;3928;42.626;23.382;2022-11-11T04:28:43;48.83;;;31.27;;
7767;SDS011;3928;42.626;23.382;2022-11-11T04:31:28;43.13;;;30.33;;
7767;SDS011;3928;42.626;23.382;2022-11-11T04:33:54;43.93;;;29.97;;
7767;SDS011;3928;42.626;23.382;2022-11-11T04:36:21;48.20;;;31.20;;
7767;SDS011;3928;42.626;23.382;2022-11-11T04:38:48;41.37;;;29.57;;
7767;SDS011;3928;42.626;23.382;2022-11-11T04:41:32;39.83;;;28.55;;
7767;SDS011;3928;42.626;23.382;2022-11-11T04:43:59;41.67;;;29.37;;
7767;SDS011;3928;42.626;23.382;2022-11-11T04:46:43;42.37;;;28.87;;
7767;SDS011;3928;42.626;23.382;2022-11-11T04:49:11;38.67;;;27.33;;
7767;SDS011;3928;42.626;23.382;2022-11-11T04:51:39;38.73;;;27.80;;
7767;SDS011;3928;42.626;23.382;2022-11-11T04:54:24;37.47;;;25.83;;
7767;SDS011;3928;42.626;23.382;2022-11-11T04:56:52;37.72;;;26.30;;
7767;SDS011;3928;42.626;23.382;2022-11-11T04:59:18;34.17;;;25.20;;
7767;SDS011;3928;42.626;23.382;2022-11-11T05:01:45;49.23;;;36.60;;
7767;SDS011;3928;42.626;23.382;2022-11-11T05:04:29;47.00;;;32.27;;
7767;SDS011;3928;42.626;23.382;2022-11-11T05:06:58;35.10;;;26.53;;
7767;SDS011;3928;42.626;23.382;2022-11-11T05:09:42;35.17;;;25.93;;
7767;SDS011;3928;42.626;23.382;2022-11-11T05:12:08;34.97;;;25.03;;
7767;SDS011;3928;42.626;23.382;2022-11-11T05:14:35;33.07;;;24.10;;
7767;SDS011;3928;42.626;23.382;2022-11-11T05:17:20;30.33;;;23.30;;
7767;SDS011;3928;42.626;23.382;2022-11-11T05:20:04;46.50;;;33.07;;
7767;SDS011;3928;42.626;23.382;2022-11-11T05:22:50;38.27;;;27.60;;
7767;SDS011;3928;42.626;23.382;2022-11-11T05:25:17;33.95;;;25.33;;
7767;SDS011;3928;42.626;23.382;2022-11-11T05:27:53;33.85;;;24.25;;
7767;SDS011;3928;42.626;23.382;2022-11-11T05:30:21;31.00;;;22.95;;
7767;SDS011;3928;42.626;23.382;2022-11-11T05:32:49;33.47;;;24.70;;
7767;SDS011;3928;42.626;23.382;2022-11-11T05:35:16;29.63;;;22.85;;
7767;SDS011;3928;42.626;23.382;2022-11-11T05:37:44;32.45;;;23.40;;
7767;SDS011;3928;42.626;23.382;2022-11-11T05:40:34;29.00;;;21.67;;
7767;SDS011;3928;42.626;23.382;2022-11-11T05:43:01;29.67;;;20.77;;
7767;SDS011;3928;42.626;23.382;2022-11-11T05:45:27;33.45;;;22.05;;
7767;SDS011;3928;42.626;23.382;2022-11-11T05:47:56;28.10;;;21.98;;
7767;SDS011;3928;42.626;23.382;2022-11-11T05:50:26;30.92;;;21.83;;
7767;SDS011;3928;42.626;23.382;2022-11-11T05:52:53;37.60;;;22.95;;
7767;SDS011;3928;42.626;23.382;2022-11-11T05:55:20;27.48;;;20.30;;
7767;SDS011;3928;42.626;23.382;2022-11-11T05:57:48;27.75;;;20.58;;
7767;SDS011;3928;42.626;23.382;2022-11-11T06:00:17;31.27;;;20.92;;
7767;SDS011;3928;42.626;23.382;2022-11-11T06:02:44;27.90;;;19.42;;
7767;SDS011;3928;42.626;23.382;2022-11-11T06:05:10;26.65;;;19.85;;
7767;SDS011;3928;42.626;23.382;2022-11-11T06:07:37;26.95;;;20.00;;
7767;SDS011;3928;42.626;23.382;2022-11-11T06:10:06;22.98;;;17.27;;
7767;SDS011;3928;42.626;23.382;2022-11-11T06:12:53;26.63;;;19.10;;
7767;SDS011;3928;42.626;23.382;2022-11-11T06:15:34;33.90;;;25.48;;
7767;SDS011;3928;42.626;23.382;2022-11-11T06:18:01;33.65;;;23.38;;
7767;SDS011;3928;42.626;23.382;2022-11-11T06:20:30;38.65;;;27.80;;
7767;SDS011;3928;42.626;23.382;2022-11-11T06:22:59;45.05;;;29.08;;
7767;SDS011;3928;42.626;23.382;2022-11-11T06:25:27;44.85;;;28.92;;
7767;SDS011;3928;42.626;23.382;2022-11-11T06:28:16;41.50;;;27.23;;
7767;SDS011;3928;42.626;23.382;2022-11-11T06:30:43;41.85;;;29.30;;
7767;SDS011;3928;42.626;23.382;2022-11-11T06:33:11;47.42;;;28.27;;
7767;SDS011;3928;42.626;23.382;2022-11-11T06:35:41;39.55;;;28.98;;
7767;SDS011;3928;42.626;23.382;2022-11-11T06:38:09;39.40;;;28.08;;
7767;SDS011;3928;42.626;23.382;2022-11-11T06:40:37;43.17;;;27.33;;
7767;SDS011;3928;42.626;23.382;2022-11-11T06:43:05;35.78;;;26.17;;
7767;SDS011;3928;42.626;23.382;2022-11-11T06:45:33;34.67;;;25.65;;
7767;SDS011;3928;42.626;23.382;2022-11-11T06:48:01;44.42;;;31.48;;
7767;SDS011;3928;42.626;23.382;2022-11-11T06:50:28;60.97;;;38.70;;
7767;SDS011;3928;42.626;23.382;2022-11-11T06:52:56;41.90;;;31.05;;
7767;SDS011;3928;42.626;23.382;2022-11-11T06:55:30;52.95;;;34.65;;
7767;SDS011;3928;42.626;23.382;2022-11-11T06:58:03;51.08;;;36.25;;
7767;SDS011;3928;42.626;23.382;2022-11-11T07:00:30;48.55;;;31.98;;
7767;SDS011;3928;42.626;23.382;2022-11-11T07:02:59;47.72;;;33.67;;
7767;SDS011;3928;42.626;23.382;2022-11-11T07:05:25;37.17;;;27.27;;
7767;SDS011;3928;42.626;23.382;2022-11-11T07:07:53;32.33;;;23.85;;
7767;SDS011;3928;42.626;23.382;2022-11-11T07:10:20;31.48;;;22.50;;
7767;SDS011;3928;42.626;23.382;2022-11-11T07:12:47;30.52;;;22.58;;
7767;SDS011;3928;42.626;23.382;2022-11-11T07:15:15;34.53;;;22.73;;
7767;SDS011;3928;42.626;23.382;2022-11-11T07:17:43;33.28;;;23.10;;
7767;SDS011;3928;42.626;23.382;2022-11-11T07:20:14;31.73;;;23.98;;
7767;SDS011;3928;42.626;23.382;2022-11-11T07:22:42;32.33;;;23.67;;
7767;SDS011;3928;42.626;23.382;2022-11-11T07:25:12;29.50;;;21.27;;
7767;SDS011;3928;42.626;23.382;2022-11-11T07:27:39;33.53;;;22.90;;
7767;SDS011;3928;42.626;23.382;2022-11-11T07:30:08;30.48;;;21.63;;
7767;SDS011;3928;42.626;23.382;2022-11-11T07:32:36;28.65;;;19.88;;
7767;SDS011;3928;42.626;23.382;2022-11-11T07:35:11;29.67;;;20.00;;
7767;SDS011;3928;42.626;23.382;2022-11-11T07:37:42;29.00;;;20.27;;
7767;SDS011;3928;42.626;23.382;2022-11-11T07:40:11;29.58;;;22.15;;
7767;SDS011;3928;42.626;23.382;2022-11-11T07:42:42;28.77;;;21.07;;
7767;SDS011;3928;42.626;23.382;2022-11-11T07:45:12;33.43;;;21.03;;
7767;SDS011;3928;42.626;23.382;2022-11-11T07:47:42;30.88;;;20.63;;
7767;SDS011;3928;42.626;23.382;2022-11-11T07:50:11;28.80;;;19.93;;
7767;SDS011;3928;42.626;23.382;2022-11-11T07:52:46;29.70;;;20.27;;
7767;SDS011;3928;42.626;23.382;2022-11-11T07:55:15;28.80;;;20.20;;
7767;SDS011;3928;42.626;23.382;2022-11-11T07:57:43;35.33;;;21.23;;
7767;SDS011;3928;42.626;23.382;2022-11-11T08:00:11;31.93;;;20.33;;
7767;SDS011;3928;42.626;23.382;2022-11-11T08:02:39;30.00;;;19.20;;
7767;SDS011;3928;42.626;23.382;2022-11-11T08:05:11;27.97;;;18.90;;
7767;SDS011;3928;42.626;23.382;2022-11-11T08:07:40;26.30;;;18.47;;
7767;SDS011;3928;42.626;23.382;2022-11-11T08:10:09;29.50;;;19.40;;
7767;SDS011;3928;42.626;23.382;2022-11-11T08:12:39;26.10;;;19.17;;
7767;SDS011;3928;42.626;23.382;2022-11-11T08:15:24;26.37;;;19.50;;
7767;SDS011;3928;42.626;23.382;2022-11-11T08:17:52;27.50;;;20.07;;
7767;SDS011;3928;42.626;23.382;2022-11-11T08:20:26;26.93;;;20.00;;
7767;SDS011;3928;42.626;23.382;2022-11-11T08:23:03;25.70;;;18.97;;
7767;SDS011;3928;42.626;23.382;2022-11-11T08:25:35;27.23;;;19.00;;
7767;SDS011;3928;42.626;23.382;2022-11-11T08:28:05;28.00;;;17.93;;
7767;SDS011;3928;42.626;23.382;2022-11-11T08:30:32;24.93;;;16.93;;
7767;SDS011;3928;42.626;23.382;2022-11-11T08:33:04;27.50;;;17.27;;
7767;SDS011;3928;42.626;23.382;2022-11-11T08:35:36;25.23;;;18.20;;
7767;SDS011;3928;42.626;23.382;2022-11-11T08:38:07;24.17;;;16.50;;
7767;SDS011;3928;42.626;23.382;2022-11-11T08:40:34;39.57;;;27.20;;
7767;SDS011;3928;42.626;23.382;2022-11-11T08:43:02;25.07;;;17.70;;
7767;SDS011;3928;42.626;23.382;2022-11-11T08:45:31;28.17;;;18.40;;
7767;SDS011;3928;42.626;23.382;2022-11-11T08:48:02;28.53;;;18.17;;
7767;SDS011;3928;42.626;23.382;2022-11-11T08:50:29;28.30;;;18.17;;
7767;SDS011;3928;42.626;23.382;2022-11-11T08:52:58;25.93;;;17.90;;
7767;SDS011;3928;42.626;23.382;2022-11-11T08:55:27;25.57;;;18.17;;
7767;SDS011;3928;42.626;23.382;2022-11-11T08:57:57;24.90;;;18.20;;
7767;SDS011;3928;42.626;23.382;2022-11-11T09:00:27;26.87;;;17.97;;
7767;SDS011;3928;42.626;23.382;2022-11-11T09:02:59;23.40;;;17.53;;
7767;SDS011;3928;42.626;23.382;2022-11-11T09:05:27;26.17;;;17.13;;
7767;SDS011;3928;42.626;23.382;2022-11-11T09:08:02;23.50;;;17.30;;
7767;SDS011;3928;42.626;23.382;2022-11-11T09:10:32;26.07;;;16.67;;
7767;SDS011;3928;42.626;23.382;2022-11-11T09:13:01;20.60;;;15.67;;
7767;SDS011;3928;42.626;23.382;2022-11-11T09:15:30;24.33;;;15.07;;
7767;SDS011;3928;42.626;23.382;2022-11-11T09:17:57;21.17;;;15.47;;
7767;SDS011;3928;42.626;23.382;2022-11-11T09:20:27;24.50;;;16.67;;
7767;SDS011;3928;42.626;23.382;2022-11-11T09:22:55;24.23;;;15.77;;
7767;SDS011;3928;42.626;23.382;2022-11-11T09:25:26;22.57;;;15.57;;
7767;SDS011;3928;42.626;23.382;2022-11-11T09:27:55;18.97;;;14.33;;
7767;SDS011;3928;42.626;23.382;2022-11-11T09:30:23;22.37;;;14.47;;
7767;SDS011;3928;42.626;23.382;2022-11-11T09:32:51;19.83;;;15.07;;
7767;SDS011;3928;42.626;23.382;2022-11-11T09:35:20;23.87;;;13.77;;
7767;SDS011;3928;42.626;23.382;2022-11-11T09:37:53;18.63;;;13.05;;
7767;SDS011;3928;42.626;23.382;2022-11-11T09:40:21;21.37;;;14.13;;
7767;SDS011;3928;42.626;23.382;2022-11-11T09:42:55;19.67;;;14.43;;
7767;SDS011;3928;42.626;23.382;2022-11-11T09:45:32;31.63;;;22.70;;
7767;SDS011;3928;42.626;23.382;2022-11-11T09:48:32;19.47;;;14.07;;
7767;SDS011;3928;42.626;23.382;2022-11-11T09:51:06;16.93;;;12.27;;
7767;SDS011;3928;42.626;23.382;2022-11-11T09:53:41;18.20;;;13.02;;
7767;SDS011;3928;42.626;23.382;2022-11-11T09:56:14;16.08;;;12.07;;
7767;SDS011;3928;42.626;23.382;2022-11-11T09:58:46;17.52;;;12.30;;
7767;SDS011;3928;42.626;23.382;2022-11-11T10:01:18;19.93;;;12.30;;
7767;SDS011;3928;42.626;23.382;2022-11-11T10:03:50;13.77;;;11.35;;
7767;SDS011;3928;42.626;23.382;2022-11-11T10:06:26;14.75;;;11.60;;
7767;SDS011;3928;42.626;23.382;2022-11-11T10:08:57;16.00;;;11.32;;
7767;SDS011;3928;42.626;23.382;2022-11-11T10:11:30;13.63;;;11.15;;
7767;SDS011;3928;42.626;23.382;2022-11-11T10:14:15;14.18;;;11.45;;
7767;SDS011;3928;42.626;23.382;2022-11-11T10:16:44;28.00;;;20.80;;
7767;SDS011;3928;42.626;23.382;2022-11-11T10:19:21;39.73;;;29.30;;
7767;SDS011;3928;42.626;23.382;2022-11-11T10:21:56;23.27;;;12.75;;
7767;SDS011;3928;42.626;23.382;2022-11-11T10:24:27;13.93;;;11.50;;
7767;SDS011;3928;42.626;23.382;2022-11-11T10:26:58;13.37;;;10.90;;
7767;SDS011;3928;42.626;23.382;2022-11-11T10:29:33;12.13;;;10.07;;
7767;SDS011;3928;42.626;23.382;2022-11-11T10:32:09;12.95;;;10.13;;
7767;SDS011;3928;42.626;23.382;2022-11-11T10:34:41;11.02;;;9.52;;
7767;SDS011;3928;42.626;23.382;2022-11-11T10:37:13;12.60;;;9.10;;
7767;SDS011;3928;42.626;23.382;2022-11-11T10:39:47;13.32;;;10.18;;
7767;SDS011;3928;42.626;23.382;2022-11-11T10:42:25;13.32;;;10.60;;
7767;SDS011;3928;42.626;23.382;2022-11-11T10:44:55;13.90;;;10.32;;
7767;SDS011;3928;42.626;23.382;2022-11-11T10:47:28;14.68;;;10.23;;
7767;SDS011;3928;42.626;23.382;2022-11-11T10:50:06;15.40;;;9.85;;
7767;SDS011;3928;42.626;23.382;2022-11-11T10:52:40;11.63;;;9.38;;
7767;SDS011;3928;42.626;23.382;2022-11-11T10:55:13;11.07;;;8.93;;
7767;SDS011;3928;42.626;23.382;2022-11-11T10:57:48;14.52;;;9.73;;
7767;SDS011;3928;42.626;23.382;2022-11-11T11:00:30;15.15;;;9.55;;
7767;SDS011;3928;42.626;23.382;2022-11-11T11:03:03;11.07;;;9.38;;
7767;SDS011;3928;42.626;23.382;2022-11-11T11:05:39;12.40;;;9.90;;
7767;SDS011;3928;42.626;23.382;2022-11-11T11:08:14;12.10;;;9.25;;
7767;SDS011;3928;42.626;23.382;2022-11-11T11:10:46;12.68;;;10.15;;
7767;SDS011;3928;42.626;23.382;2022-11-11T11:13:20;10.40;;;8.13;;
7767;SDS011;3928;42.626;23.382;2022-11-11T11:15:56;9.85;;;8.07;;
7767;SDS011;3928;42.626;23.382;2022-11-11T11:18:29;12.50;;;8.35;;
7767;SDS011;3928;42.626;23.382;2022-11-11T11:20:57;9.75;;;8.57;;
7767;SDS011;3928;42.626;23.382;2022-11-11T11:23:34;9.25;;;8.05;;
7767;SDS011;3928;42.626;23.382;2022-11-11T11:26:06;10.85;;;8.23;;
7767;SDS011;3928;42.626;23.382;2022-11-11T11:28:34;9.15;;;8.23;;
7767;SDS011;3928;42.626;23.382;2022-11-11T11:31:20;10.77;;;8.57;;
7767;SDS011;3928;42.626;23.382;2022-11-11T11:34:00;11.88;;;8.15;;
7767;SDS011;3928;42.626;23.382;2022-11-11T11:36:27;11.18;;;8.05;;
7767;SDS011;3928;42.626;23.382;2022-11-11T11:38:54;12.30;;;8.60;;
7767;SDS011;3928;42.626;23.382;2022-11-11T11:41:34;13.02;;;8.50;;
7767;SDS011;3928;42.626;23.382;2022-11-11T11:44:02;9.57;;;7.93;;
7767;SDS011;3928;42.626;23.382;2022-11-11T11:46:32;8.23;;;6.95;;
7767;SDS011;3928;42.626;23.382;2022-11-11T11:49:07;8.55;;;7.07;;
7767;SDS011;3928;42.626;23.382;2022-11-11T11:51:45;8.55;;;7.22;;
7767;SDS011;3928;42.626;23.382;2022-11-11T11:57:19;8.80;;;6.50;;
7767;SDS011;3928;42.626;23.382;2022-11-11T11:59:56;30.63;;;23.58;;
7767;SDS011;3928;42.626;23.382;2022-11-11T12:02:39;21.65;;;16.73;;
7767;SDS011;3928;42.626;23.382;2022-11-11T12:05:30;170.77;;;138.67;;
7767;SDS011;3928;42.626;23.382;2022-11-11T12:08:07;19.42;;;14.45;;
7767;SDS011;3928;42.626;23.382;2022-11-11T12:10:41;22.65;;;16.27;;
7767;SDS011;3928;42.626;23.382;2022-11-11T12:13:17;9.10;;;7.88;;
7767;SDS011;3928;42.626;23.382;2022-11-11T12:15:58;10.90;;;7.85;;
7767;SDS011;3928;42.626;23.382;2022-11-11T12:18:42;9.88;;;7.65;;
7767;SDS011;3928;42.626;23.382;2022-11-11T12:21:33;11.23;;;7.43;;
7767;SDS011;3928;42.626;23.382;2022-11-11T12:24:12;9.38;;;6.97;;
7767;SDS011;3928;42.626;23.382;2022-11-11T12:26:48;7.95;;;6.28;;
7767;SDS011;3928;42.626;23.382;2022-11-11T12:29:26;10.05;;;7.63;;
7767;SDS011;3928;42.626;23.382;2022-11-11T12:32:23;8.85;;;7.03;;
7767;SDS011;3928;42.626;23.382;2022-11-11T12:35:04;9.93;;;7.45;;
7767;SDS011;3928;42.626;23.382;2022-11-11T12:37:42;10.60;;;8.93;;
7767;SDS011;3928;42.626;23.382;2022-11-11T12:40:22;10.85;;;6.95;;
7767;SDS011;3928;42.626;23.382;2022-11-11T12:42:57;8.82;;;6.50;;
7767;SDS011;3928;42.626;23.382;2022-11-11T12:45:35;11.75;;;6.82;;
7767;SDS011;3928;42.626;23.382;2022-11-11T12:48:09;10.40;;;7.20;;
7767;SDS011;3928;42.626;23.382;2022-11-11T12:50:52;9.82;;;7.03;;
7767;SDS011;3928;42.626;23.382;2022-11-11T12:53:29;8.18;;;6.35;;
7767;SDS011;3928;42.626;23.382;2022-11-11T12:56:01;7.95;;;6.75;;
7767;SDS011;3928;42.626;23.382;2022-11-11T12:58:39;8.52;;;6.68;;
7767;SDS011;3928;42.626;23.382;2022-11-11T13:01:14;11.55;;;7.13;;
7767;SDS011;3928;42.626;23.382;2022-11-11T13:03:53;10.30;;;7.03;;
7767;SDS011;3928;42.626;23.382;2022-11-11T13:06:55;26.08;;;16.58;;
7767;SDS011;3928;42.626;23.382;2022-11-11T13:09:43;11.65;;;7.22;;
7767;SDS011;3928;42.626;23.382;2022-11-11T13:12:24;10.07;;;6.53;;
7767;SDS011;3928;42.626;23.382;2022-11-11T13:15:01;10.18;;;7.18;;
7767;SDS011;3928;42.626;23.382;2022-11-11T13:17:31;13.85;;;7.57;;
7767;SDS011;3928;42.626;23.382;2022-11-11T13:19:58;9.70;;;6.75;;
7767;SDS011;3928;42.626;23.382;2022-11-11T13:22:30;9.38;;;7.13;;
7767;SDS011;3928;42.626;23.382;2022-11-11T13:24:59;10.10;;;7.07;;
7767;SDS011;3928;42.626;23.382;2022-11-11T13:27:32;9.23;;;6.85;;
7767;SDS011;3928;42.626;23.382;2022-11-11T13:30:06;9.77;;;7.57;;
7767;SDS011;3928;42.626;23.382;2022-11-11T13:32:51;9.38;;;6.53;;
7767;SDS011;3928;42.626;23.382;2022-11-11T13:35:23;8.35;;;6.70;;
7767;SDS011;3928;42.626;23.382;2022-11-11T13:37:56;9.27;;;6.97;;
7767;SDS011;3928;42.626;23.382;2022-11-11T13:40:30;8.75;;;6.88;;
7767;SDS011;3928;42.626;23.382;2022-11-11T13:43:01;9.80;;;6.55;;
7767;SDS011;3928;42.626;23.382;2022-11-11T13:45:42;7.97;;;6.75;;
7767;SDS011;3928;42.626;23.382;2022-11-11T13:48:18;8.55;;;6.95;;
7767;SDS011;3928;42.626;23.382;2022-11-11T13:51:08;9.82;;;7.18;;
7767;SDS011;3928;42.626;23.382;2022-11-11T13:53:44;11.23;;;6.68;;
7767;SDS011;3928;42.626;23.382;2022-11-11T13:56:23;9.57;;;7.22;;
7767;SDS011;3928;42.626;23.382;2022-11-11T13:58:57;14.05;;;7.57;;
7767;SDS011;3928;42.626;23.382;2022-11-11T14:01:31;15.82;;;11.60;;
7767;SDS011;3928;42.626;23.382;2022-11-11T14:04:02;84.75;;;65.75;;
7767;SDS011;3928;42.626;23.382;2022-11-11T14:06:35;64.15;;;47.95;;
7767;SDS011;3928;42.626;23.382;2022-11-11T14:12:22;12.15;;;9.45;;
7767;SDS011;3928;42.626;23.382;2022-11-11T14:15:00;9.43;;;7.65;;
7767;SDS011;3928;42.626;23.382;2022-11-11T14:17:31;11.50;;;7.75;;
7767;SDS011;3928;42.626;23.382;2022-11-11T14:19:59;13.35;;;7.35;;
7767;SDS011;3928;42.626;23.382;2022-11-11T14:28:59;10.27;;;8.30;;
7767;SDS011;3928;42.626;23.382;2022-11-11T14:31:34;29.90;;;21.10;;
7767;SDS011;3928;42.626;23.382;2022-11-11T14:34:17;39.88;;;27.17;;
7767;SDS011;3928;42.626;23.382;2022-11-11T14:36:53;17.55;;;13.00;;
7767;SDS011;3928;42.626;23.382;2022-11-11T14:39:31;13.20;;;9.63;;
7767;SDS011;3928;42.626;23.382;2022-11-11T14:42:19;13.07;;;9.63;;
7767;SDS011;3928;42.626;23.382;2022-11-11T14:51:44;12.25;;;9.32;;
7767;SDS011;3928;42.626;23.382;2022-11-11T14:57:19;13.55;;;9.45;;
7767;SDS011;3928;42.626;23.382;2022-11-11T14:59:49;13.02;;;7.75;;
7767;SDS011;3928;42.626;23.382;2022-11-11T15:02:21;12.15;;;9.13;;
7767;SDS011;3928;42.626;23.382;2022-11-11T15:04:56;10.38;;;8.23;;
7767;SDS011;3928;42.626;23.382;2022-11-11T15:07:26;11.27;;;8.05;;
7767;SDS011;3928;42.626;23.382;2022-11-11T15:10:11;12.52;;;8.93;;
7767;SDS011;3928;42.626;23.382;2022-11-11T15:16:02;9.43;;;7.50;;
7767;SDS011;3928;42.626;23.382;2022-11-11T15:18:49;12.90;;;8.02;;
7767;SDS011;3928;42.626;23.382;2022-11-11T15:21:26;12.13;;;9.10;;
7767;SDS011;3928;42.626;23.382;2022-11-11T15:24:03;12.63;;;8.70;;
7767;SDS011;3928;42.626;23.382;2022-11-11T15:26:41;11.85;;;9.18;;
7767;SDS011;3928;42.626;23.382;2022-11-11T15:29:22;12.60;;;9.32;;
7767;SDS011;3928;42.626;23.382;2022-11-11T15:32:13;15.85;;;12.18;;
7767;SDS011;3928;42.626;23.382;2022-11-11T15:34:50;57.30;;;36.95;;
7767;SDS011;3928;42.626;23.382;2022-11-11T15:37:23;38.90;;;28.48;;
7767;SDS011;3928;42.626;23.382;2022-11-11T15:39:53;21.95;;;14.73;;